sensor_id;sensor_type;location;lat;lon;timestamp;pressure;altitude;pressure_sealevel;temperature;humidity
24336;BME280;33098;52.400;16.880;2023-06-26T00:00:25;100757.45;;;20.75;60.75
24336;BME280;33098;52.400;16.880;2023-06-26T00:03:11;100760.38;;;20.71;61.03
24336;BME280;33098;52.400;16.880;2023-06-26T00:05:41;100756.80;;;20.73;61.05
24336;BME280;33098;52.400;16.880;2023-06-26T00:08:08;100752.98;;;20.72;61.20
24336;BME280;33098;52.400;16.880;2023-06-26T00:10:35;100753.81;;;20.74;61.05
24336;BME280;33098;52.400;16.880;2023-06-26T00:13:01;100751.80;;;20.78;61.21
24336;BME280;33098;52.400;16.880;2023-06-26T00:15:28;100753.64;;;20.83;61.42
24336;BME280;33098;52.400;16.880;2023-06-26T00:18:00;100754.89;;;20.88;61.45
24336;BME280;33098;52.400;16.880;2023-06-26T00:20:29;100755.06;;;20.84;61.28
24336;BME280;33098;52.400;16.880;2023-06-26T00:23:00;100749.61;;;20.79;61.37
24336;BME280;33098;52.400;16.880;2023-06-26T00:25:26;100754.26;;;20.78;61.40
24336;BME280;33098;52.400;16.880;2023-06-26T00:27:53;100751.71;;;20.78;61.56
24336;BME280;33098;52.400;16.880;2023-06-26T00:30:19;100754.94;;;20.77;61.58
24336;BME280;33098;52.400;16.880;2023-06-26T00:32:46;100750.61;;;20.82;61.75
24336;BME280;33098;52.400;16.880;2023-06-26T00:35:13;100745.92;;;20.80;61.71
24336;BME280;33098;52.400;16.880;2023-06-26T00:37:39;100748.10;;;20.81;61.69
24336;BME280;33098;52.400;16.880;2023-06-26T00:40:06;100742.96;;;20.78;61.65
24336;BME280;33098;52.400;16.880;2023-06-26T00:42:33;100743.30;;;20.73;61.66
24336;BME280;33098;52.400;16.880;2023-06-26T00:45:00;100744.70;;;20.71;61.88
24336;BME280;33098;52.400;16.880;2023-06-26T00:47:27;100742.33;;;20.70;61.96
24336;BME280;33098;52.400;16.880;2023-06-26T00:49:54;100741.05;;;20.70;62.08
24336;BME280;33098;52.400;16.880;2023-06-26T00:52:21;100740.12;;;20.74;61.98
24336;BME280;33098;52.400;16.880;2023-06-26T00:54:51;100739.52;;;20.71;61.93
24336;BME280;33098;52.400;16.880;2023-06-26T00:57:18;100740.23;;;20.66;61.98
24336;BME280;33098;52.400;16.880;2023-06-26T00:59:45;100740.48;;;20.61;62.17
24336;BME280;33098;52.400;16.880;2023-06-26T01:02:12;100742.75;;;20.51;61.97
24336;BME280;33098;52.400;16.880;2023-06-26T01:04:38;100744.27;;;20.41;62.12
24336;BME280;33098;52.400;16.880;2023-06-26T01:07:14;100737.45;;;20.33;62.19
24336;BME280;33098;52.400;16.880;2023-06-26T01:09:41;100730.80;;;20.26;62.46
24336;BME280;33098;52.400;16.880;2023-06-26T01:12:08;100732.98;;;20.21;62.61
24336;BME280;33098;52.400;16.880;2023-06-26T01:14:35;100734.14;;;20.18;62.65
24336;BME280;33098;52.400;16.880;2023-06-26T01:17:03;100738.13;;;20.13;62.90
24336;BME280;33098;52.400;16.880;2023-06-26T01:19:31;100738.44;;;20.10;62.93
24336;BME280;33098;52.400;16.880;2023-06-26T01:22:24;100736.65;;;20.03;63.01
24336;BME280;33098;52.400;16.880;2023-06-26T01:25:03;100735.23;;;19.97;63.25
24336;BME280;33098;52.400;16.880;2023-06-26T01:27:36;100736.02;;;19.97;63.41
24336;BME280;33098;52.400;16.880;2023-06-26T01:30:05;100732.89;;;19.97;63.37
24336;BME280;33098;52.400;16.880;2023-06-26T01:32:35;100737.09;;;19.90;63.19
24336;BME280;33098;52.400;16.880;2023-06-26T01:35:02;100734.61;;;19.77;63.39
24336;BME280;33098;52.400;16.880;2023-06-26T01:37:30;100734.73;;;19.66;63.68
24336;BME280;33098;52.400;16.880;2023-06-26T01:39:57;100733.65;;;19.60;63.90
24336;BME280;33098;52.400;16.880;2023-06-26T01:42:23;100731.17;;;19.62;64.13
24336;BME280;33098;52.400;16.880;2023-06-26T01:44:51;100731.52;;;19.64;64.12
24336;BME280;33098;52.400;16.880;2023-06-26T01:47:22;100726.21;;;19.63;64.28
24336;BME280;33098;52.400;16.880;2023-06-26T01:50:12;100723.88;;;19.63;64.41
24336;BME280;33098;52.400;16.880;2023-06-26T01:53:02;100723.66;;;19.67;64.49
24336;BME280;33098;52.400;16.880;2023-06-26T01:55:48;100722.64;;;19.61;64.34
24336;BME280;33098;52.400;16.880;2023-06-26T01:58:19;100718.86;;;19.58;64.50
24336;BME280;33098;52.400;16.880;2023-06-26T02:00:48;100711.67;;;19.55;64.42
24336;BME280;33098;52.400;16.880;2023-06-26T02:03:15;100711.81;;;19.44;64.54
24336;BME280;33098;52.400;16.880;2023-06-26T02:05:41;100709.23;;;19.36;64.67
24336;BME280;33098;52.400;16.880;2023-06-26T02:08:08;100709.48;;;19.42;64.92
24336;BME280;33098;52.400;16.880;2023-06-26T02:10:35;100706.15;;;19.43;64.98
24336;BME280;33098;52.400;16.880;2023-06-26T02:13:02;100705.70;;;19.43;65.10
24336;BME280;33098;52.400;16.880;2023-06-26T02:15:29;100701.41;;;19.45;65.11
24336;BME280;33098;52.400;16.880;2023-06-26T02:17:55;100704.69;;;19.45;65.12
24336;BME280;33098;52.400;16.880;2023-06-26T02:20:22;100702.30;;;19.46;65.19
24336;BME280;33098;52.400;16.880;2023-06-26T02:22:48;100701.46;;;19.43;65.40
24336;BME280;33098;52.400;16.880;2023-06-26T02:25:15;100695.06;;;19.42;65.32
24336;BME280;33098;52.400;16.880;2023-06-26T02:27:43;100699.64;;;19.40;65.52
24336;BME280;33098;52.400;16.880;2023-06-26T02:30:10;100701.88;;;19.36;65.56
24336;BME280;33098;52.400;16.880;2023-06-26T02:32:37;100703.90;;;19.33;65.57
24336;BME280;33098;52.400;16.880;2023-06-26T02:35:04;100708.13;;;19.22;65.57
24336;BME280;33098;52.400;16.880;2023-06-26T02:37:31;100706.71;;;19.10;65.73
24336;BME280;33098;52.400;16.880;2023-06-26T02:39:58;100706.80;;;18.97;65.83
24336;BME280;33098;52.400;16.880;2023-06-26T02:42:24;100702.06;;;18.91;66.15
24336;BME280;33098;52.400;16.880;2023-06-26T02:44:52;100701.08;;;18.94;66.57
24336;BME280;33098;52.400;16.880;2023-06-26T02:47:18;100702.88;;;18.98;66.68
24336;BME280;33098;52.400;16.880;2023-06-26T02:49:45;100701.50;;;18.97;66.78
24336;BME280;33098;52.400;16.880;2023-06-26T02:52:12;100700.66;;;18.98;66.94
24336;BME280;33098;52.400;16.880;2023-06-26T02:54:38;100696.98;;;18.99;67.05
24336;BME280;33098;52.400;16.880;2023-06-26T02:57:05;100696.96;;;19.07;67.04
24336;BME280;33098;52.400;16.880;2023-06-26T02:59:33;100694.40;;;19.11;67.08
24336;BME280;33098;52.400;16.880;2023-06-26T03:01:59;100698.19;;;19.09;67.14
24336;BME280;33098;52.400;16.880;2023-06-26T03:04:30;100695.82;;;19.11;67.33
24336;BME280;33098;52.400;16.880;2023-06-26T03:06:57;100695.64;;;19.13;67.26
24336;BME280;33098;52.400;16.880;2023-06-26T03:09:24;100691.90;;;19.09;67.15
24336;BME280;33098;52.400;16.880;2023-06-26T03:11:50;100689.38;;;19.07;67.22
24336;BME280;33098;52.400;16.880;2023-06-26T03:14:21;100692.84;;;19.14;67.40
24336;BME280;33098;52.400;16.880;2023-06-26T03:16:47;100693.65;;;19.11;67.32
24336;BME280;33098;52.400;16.880;2023-06-26T03:19:14;100690.17;;;19.01;67.27
24336;BME280;33098;52.400;16.880;2023-06-26T03:22:00;100693.20;;;18.93;67.46
24336;BME280;33098;52.400;16.880;2023-06-26T03:24:28;100686.55;;;18.91;67.80
24336;BME280;33098;52.400;16.880;2023-06-26T03:26:54;100689.25;;;18.89;68.03
24336;BME280;33098;52.400;16.880;2023-06-26T03:29:21;100685.27;;;18.93;68.35
24336;BME280;33098;52.400;16.880;2023-06-26T03:31:48;100685.51;;;18.97;68.36
24336;BME280;33098;52.400;16.880;2023-06-26T03:34:15;100688.30;;;19.04;68.54
24336;BME280;33098;52.400;16.880;2023-06-26T03:36:42;100687.02;;;19.11;68.60
24336;BME280;33098;52.400;16.880;2023-06-26T03:39:08;100688.95;;;19.15;68.65
24336;BME280;33098;52.400;16.880;2023-06-26T03:41:36;100689.80;;;19.17;68.67
24336;BME280;33098;52.400;16.880;2023-06-26T03:44:02;100690.20;;;19.18;68.65
24336;BME280;33098;52.400;16.880;2023-06-26T03:46:36;100690.84;;;19.17;68.63
24336;BME280;33098;52.400;16.880;2023-06-26T03:49:02;100688.17;;;19.17;68.77
24336;BME280;33098;52.400;16.880;2023-06-26T03:51:29;100692.50;;;19.19;68.83
24336;BME280;33098;52.400;16.880;2023-06-26T03:53:56;100691.10;;;19.25;69.03
24336;BME280;33098;52.400;16.880;2023-06-26T03:56:22;100688.33;;;19.27;69.00
24336;BME280;33098;52.400;16.880;2023-06-26T03:58:49;100684.98;;;19.30;69.08
24336;BME280;33098;52.400;16.880;2023-06-26T04:01:15;100684.77;;;19.33;69.21
24336;BME280;33098;52.400;16.880;2023-06-26T04:03:43;100685.08;;;19.37;69.09
24336;BME280;33098;52.400;16.880;2023-06-26T04:06:11;100687.95;;;19.43;68.98
24336;BME280;33098;52.400;16.880;2023-06-26T04:08:38;100693.54;;;19.48;68.90
24336;BME280;33098;52.400;16.880;2023-06-26T04:11:06;100690.48;;;19.53;68.88
24336;BME280;33098;52.400;16.880;2023-06-26T04:13:32;100692.05;;;19.58;68.76
24336;BME280;33098;52.400;16.880;2023-06-26T04:15:59;100689.58;;;19.62;68.83
24336;BME280;33098;52.400;16.880;2023-06-26T04:18:25;100693.94;;;19.64;68.71
24336;BME280;33098;52.400;16.880;2023-06-26T04:21:07;100691.39;;;19.67;68.73
24336;BME280;33098;52.400;16.880;2023-06-26T04:23:35;100694.16;;;19.73;68.79
24336;BME280;33098;52.400;16.880;2023-06-26T04:26:02;100691.19;;;19.73;68.72
24336;BME280;33098;52.400;16.880;2023-06-26T04:28:29;100692.40;;;19.77;68.73
24336;BME280;33098;52.400;16.880;2023-06-26T04:30:55;100692.04;;;19.87;68.73
24336;BME280;33098;52.400;16.880;2023-06-26T04:33:22;100693.02;;;19.98;68.52
24336;BME280;33098;52.400;16.880;2023-06-26T04:35:49;100692.95;;;20.03;68.58
24336;BME280;33098;52.400;16.880;2023-06-26T04:38:16;100692.98;;;20.09;68.51
24336;BME280;33098;52.400;16.880;2023-06-26T04:40:42;100690.31;;;20.15;68.50
24336;BME280;33098;52.400;16.880;2023-06-26T04:43:10;100691.77;;;20.20;68.48
24336;BME280;33098;52.400;16.880;2023-06-26T04:45:36;100688.58;;;20.24;68.13
24336;BME280;33098;52.400;16.880;2023-06-26T04:48:03;100691.10;;;20.30;67.70
24336;BME280;33098;52.400;16.880;2023-06-26T04:50:30;100690.23;;;20.34;67.36
24336;BME280;33098;52.400;16.880;2023-06-26T04:52:57;100690.12;;;20.42;67.01
24336;BME280;33098;52.400;16.880;2023-06-26T04:55:24;100696.68;;;20.49;66.72
24336;BME280;33098;52.400;16.880;2023-06-26T04:57:51;100696.84;;;20.53;66.38
24336;BME280;33098;52.400;16.880;2023-06-26T05:00:18;100695.80;;;20.56;66.32
24336;BME280;33098;52.400;16.880;2023-06-26T05:02:45;100692.27;;;20.63;66.23
24336;BME280;33098;52.400;16.880;2023-06-26T05:05:12;100693.65;;;20.70;65.87
24336;BME280;33098;52.400;16.880;2023-06-26T05:07:38;100692.33;;;20.75;65.72
24336;BME280;33098;52.400;16.880;2023-06-26T05:10:05;100691.48;;;20.80;65.25
24336;BME280;33098;52.400;16.880;2023-06-26T05:12:32;100693.81;;;20.86;64.80
24336;BME280;33098;52.400;16.880;2023-06-26T05:14:58;100692.05;;;20.92;64.63
24336;BME280;33098;52.400;16.880;2023-06-26T05:17:24;100690.78;;;20.96;64.42
24336;BME280;33098;52.400;16.880;2023-06-26T05:19:51;100690.77;;;21.01;64.12
24336;BME280;33098;52.400;16.880;2023-06-26T05:22:18;100690.84;;;21.04;64.20
24336;BME280;33098;52.400;16.880;2023-06-26T05:24:46;100687.49;;;21.09;63.98
24336;BME280;33098;52.400;16.880;2023-06-26T05:27:13;100687.42;;;21.12;63.75
24336;BME280;33098;52.400;16.880;2023-06-26T05:29:48;100687.02;;;21.19;63.66
24336;BME280;33098;52.400;16.880;2023-06-26T05:32:16;100686.71;;;21.26;63.48
24336;BME280;33098;52.400;16.880;2023-06-26T05:34:47;100685.42;;;21.32;63.35
24336;BME280;33098;52.400;16.880;2023-06-26T05:37:20;100679.45;;;21.36;63.10
24336;BME280;33098;52.400;16.880;2023-06-26T05:39:47;100677.33;;;21.42;63.08
24336;BME280;33098;52.400;16.880;2023-06-26T05:42:15;100676.61;;;21.48;62.98
24336;BME280;33098;52.400;16.880;2023-06-26T05:44:42;100677.06;;;21.55;62.83
24336;BME280;33098;52.400;16.880;2023-06-26T05:47:08;100678.44;;;21.60;62.70
24336;BME280;33098;52.400;16.880;2023-06-26T05:49:35;100679.29;;;21.62;62.11
24336;BME280;33098;52.400;16.880;2023-06-26T05:52:02;100681.40;;;21.64;61.88
24336;BME280;33098;52.400;16.880;2023-06-26T05:54:29;100679.80;;;21.70;61.81
24336;BME280;33098;52.400;16.880;2023-06-26T05:56:57;100680.04;;;21.75;61.46
24336;BME280;33098;52.400;16.880;2023-06-26T05:59:26;100676.08;;;21.82;61.60
24336;BME280;33098;52.400;16.880;2023-06-26T06:01:53;100677.21;;;21.92;61.62
24336;BME280;33098;52.400;16.880;2023-06-26T06:04:20;100673.71;;;21.99;61.39
24336;BME280;33098;52.400;16.880;2023-06-26T06:06:46;100669.58;;;22.06;61.50
24336;BME280;33098;52.400;16.880;2023-06-26T06:09:13;100668.56;;;22.13;61.32
24336;BME280;33098;52.400;16.880;2023-06-26T06:11:39;100669.92;;;22.19;61.29
24336;BME280;33098;52.400;16.880;2023-06-26T06:14:06;100667.30;;;22.24;61.43
24336;BME280;33098;52.400;16.880;2023-06-26T06:16:32;100664.29;;;22.31;61.46
24336;BME280;33098;52.400;16.880;2023-06-26T06:18:59;100668.93;;;22.38;61.21
24336;BME280;33098;52.400;16.880;2023-06-26T06:21:25;100662.68;;;22.43;60.87
24336;BME280;33098;52.400;16.880;2023-06-26T06:23:52;100661.95;;;22.49;60.67
24336;BME280;33098;52.400;16.880;2023-06-26T06:26:18;100662.25;;;22.55;60.49
24336;BME280;33098;52.400;16.880;2023-06-26T06:28:45;100660.23;;;22.59;59.99
24336;BME280;33098;52.400;16.880;2023-06-26T06:31:11;100661.35;;;22.62;59.71
24336;BME280;33098;52.400;16.880;2023-06-26T06:33:38;100662.66;;;22.67;59.52
24336;BME280;33098;52.400;16.880;2023-06-26T06:36:04;100660.85;;;22.76;59.47
24336;BME280;33098;52.400;16.880;2023-06-26T06:38:31;100657.05;;;22.82;59.14
24336;BME280;33098;52.400;16.880;2023-06-26T06:40:58;100655.93;;;22.88;58.74
24336;BME280;33098;52.400;16.880;2023-06-26T06:43:24;100659.15;;;22.92;58.35
24336;BME280;33098;52.400;16.880;2023-06-26T06:45:51;100655.05;;;23.00;58.33
24336;BME280;33098;52.400;16.880;2023-06-26T06:48:18;100653.29;;;23.07;58.08
24336;BME280;33098;52.400;16.880;2023-06-26T06:50:44;100651.52;;;23.12;57.84
24336;BME280;33098;52.400;16.880;2023-06-26T06:53:11;100650.47;;;23.19;57.50
24336;BME280;33098;52.400;16.880;2023-06-26T06:55:37;100644.69;;;23.25;57.27
24336;BME280;33098;52.400;16.880;2023-06-26T06:58:04;100644.56;;;23.33;57.09
24336;BME280;33098;52.400;16.880;2023-06-26T07:00:30;100645.79;;;23.42;56.78
24336;BME280;33098;52.400;16.880;2023-06-26T07:02:58;100645.39;;;23.46;56.34
24336;BME280;33098;52.400;16.880;2023-06-26T07:05:26;100642.73;;;23.50;55.76
24336;BME280;33098;52.400;16.880;2023-06-26T07:07:53;100643.82;;;23.50;55.36
24336;BME280;33098;52.400;16.880;2023-06-26T07:10:19;100646.35;;;23.54;55.25
24336;BME280;33098;52.400;16.880;2023-06-26T07:12:46;100646.05;;;23.62;55.16
24336;BME280;33098;52.400;16.880;2023-06-26T07:15:13;100645.16;;;23.69;54.84
24336;BME280;33098;52.400;16.880;2023-06-26T07:17:39;100645.61;;;23.78;54.48
24336;BME280;33098;52.400;16.880;2023-06-26T07:20:06;100643.24;;;23.84;54.12
24336;BME280;33098;52.400;16.880;2023-06-26T07:22:35;100641.55;;;23.93;53.63
24336;BME280;33098;52.400;16.880;2023-06-26T07:25:01;100641.11;;;23.98;53.20
24336;BME280;33098;52.400;16.880;2023-06-26T07:27:28;100638.02;;;24.01;53.02
24336;BME280;33098;52.400;16.880;2023-06-26T07:29:54;100635.69;;;24.04;53.04
24336;BME280;33098;52.400;16.880;2023-06-26T07:32:21;100633.72;;;24.05;52.31
24336;BME280;33098;52.400;16.880;2023-06-26T07:34:47;100630.47;;;24.09;52.30
24336;BME280;33098;52.400;16.880;2023-06-26T07:37:14;100629.34;;;24.13;52.36
24336;BME280;33098;52.400;16.880;2023-06-26T07:39:40;100628.06;;;24.17;52.30
24336;BME280;33098;52.400;16.880;2023-06-26T07:42:07;100629.66;;;24.23;52.01
24336;BME280;33098;52.400;16.880;2023-06-26T07:44:34;100624.73;;;24.27;51.98
24336;BME280;33098;52.400;16.880;2023-06-26T07:47:00;100623.90;;;24.34;51.72
24336;BME280;33098;52.400;16.880;2023-06-26T07:49:27;100626.54;;;24.44;51.27
24336;BME280;33098;52.400;16.880;2023-06-26T07:51:53;100623.58;;;24.48;51.11
24336;BME280;33098;52.400;16.880;2023-06-26T07:54:20;100621.54;;;24.50;51.01
24336;BME280;33098;52.400;16.880;2023-06-26T07:56:55;100620.89;;;24.52;50.84
24336;BME280;33098;52.400;16.880;2023-06-26T07:59:23;100619.56;;;24.55;50.70
24336;BME280;33098;52.400;16.880;2023-06-26T08:01:51;100622.29;;;24.55;50.53
24336;BME280;33098;52.400;16.880;2023-06-26T08:04:19;100624.54;;;24.57;50.56
24336;BME280;33098;52.400;16.880;2023-06-26T08:06:55;100621.44;;;24.62;50.53
24336;BME280;33098;52.400;16.880;2023-06-26T08:09:23;100621.70;;;24.63;50.18
24336;BME280;33098;52.400;16.880;2023-06-26T08:11:50;100619.42;;;24.67;50.15
24336;BME280;33098;52.400;16.880;2023-06-26T08:14:17;100623.34;;;24.70;50.04
24336;BME280;33098;52.400;16.880;2023-06-26T08:16:45;100624.83;;;24.71;49.84
24336;BME280;33098;52.400;16.880;2023-06-26T08:19:13;100621.85;;;24.72;49.79
24336;BME280;33098;52.400;16.880;2023-06-26T08:21:41;100618.83;;;24.74;49.59
24336;BME280;33098;52.400;16.880;2023-06-26T08:24:07;100616.10;;;24.81;49.74
24336;BME280;33098;52.400;16.880;2023-06-26T08:26:35;100612.42;;;24.86;49.48
24336;BME280;33098;52.400;16.880;2023-06-26T08:29:02;100612.16;;;24.91;49.56
24336;BME280;33098;52.400;16.880;2023-06-26T08:31:34;100613.99;;;24.96;49.76
24336;BME280;33098;52.400;16.880;2023-06-26T08:34:02;100607.23;;;24.99;49.85
24336;BME280;33098;52.400;16.880;2023-06-26T08:36:28;100609.91;;;25.03;49.80
24336;BME280;33098;52.400;16.880;2023-06-26T08:38:55;100607.69;;;25.06;49.69
24336;BME280;33098;52.400;16.880;2023-06-26T08:41:22;100604.00;;;25.09;49.46
24336;BME280;33098;52.400;16.880;2023-06-26T08:43:48;100601.61;;;25.10;49.46
24336;BME280;33098;52.400;16.880;2023-06-26T08:46:17;100599.71;;;25.11;49.50
24336;BME280;33098;52.400;16.880;2023-06-26T08:48:48;100597.48;;;25.13;49.38
24336;BME280;33098;52.400;16.880;2023-06-26T08:51:17;100592.14;;;25.17;49.38
24336;BME280;33098;52.400;16.880;2023-06-26T08:56:17;100592.14;;;25.24;49.50
24336;BME280;33098;52.400;16.880;2023-06-26T08:58:46;100592.45;;;25.30;49.56
24336;BME280;33098;52.400;16.880;2023-06-26T09:01:13;100594.61;;;25.34;49.56
24336;BME280;33098;52.400;16.880;2023-06-26T09:03:39;100594.30;;;25.36;49.41
24336;BME280;33098;52.400;16.880;2023-06-26T09:06:08;100589.10;;;25.37;49.11
24336;BME280;33098;52.400;16.880;2023-06-26T09:08:34;100589.26;;;25.39;48.96
24336;BME280;33098;52.400;16.880;2023-06-26T09:11:01;100585.31;;;25.41;48.82
24336;BME280;33098;52.400;16.880;2023-06-26T09:13:31;100585.59;;;25.44;48.70
24336;BME280;33098;52.400;16.880;2023-06-26T09:15:58;100582.68;;;25.48;48.67
24336;BME280;33098;52.400;16.880;2023-06-26T09:18:24;100583.36;;;25.55;48.61
24336;BME280;33098;52.400;16.880;2023-06-26T09:20:51;100578.34;;;25.59;48.75
24336;BME280;33098;52.400;16.880;2023-06-26T09:23:17;100574.63;;;25.59;48.74
24336;BME280;33098;52.400;16.880;2023-06-26T09:25:46;100576.05;;;25.58;48.67
24336;BME280;33098;52.400;16.880;2023-06-26T09:28:13;100569.92;;;25.57;48.65
24336;BME280;33098;52.400;16.880;2023-06-26T09:30:40;100571.48;;;25.55;48.51
24336;BME280;33098;52.400;16.880;2023-06-26T09:33:15;100568.66;;;25.52;48.31
24336;BME280;33098;52.400;16.880;2023-06-26T09:35:45;100569.75;;;25.51;48.06
24336;BME280;33098;52.400;16.880;2023-06-26T09:38:14;100567.70;;;25.50;48.09
24336;BME280;33098;52.400;16.880;2023-06-26T09:40:41;100571.81;;;25.50;48.07
24336;BME280;33098;52.400;16.880;2023-06-26T09:43:09;100566.15;;;25.52;47.93
24336;BME280;33098;52.400;16.880;2023-06-26T09:45:39;100563.30;;;25.60;47.97
24336;BME280;33098;52.400;16.880;2023-06-26T09:48:06;100556.06;;;25.72;47.78
24336;BME280;33098;52.400;16.880;2023-06-26T09:50:41;100554.33;;;25.82;47.89
24336;BME280;33098;52.400;16.880;2023-06-26T09:53:09;100557.27;;;25.88;48.02
24336;BME280;33098;52.400;16.880;2023-06-26T09:55:36;100556.23;;;25.91;47.81
24336;BME280;33098;52.400;16.880;2023-06-26T09:58:03;100555.27;;;26.01;47.69
24336;BME280;33098;52.400;16.880;2023-06-26T10:00:31;100552.23;;;26.10;47.61
24336;BME280;33098;52.400;16.880;2023-06-26T10:03:01;100546.53;;;26.20;47.02
24336;BME280;33098;52.400;16.880;2023-06-26T10:05:27;100547.13;;;26.35;46.97
24336;BME280;33098;52.400;16.880;2023-06-26T10:07:54;100547.05;;;26.53;46.73
24336;BME280;33098;52.400;16.880;2023-06-26T10:10:22;100544.02;;;26.73;46.43
24336;BME280;33098;52.400;16.880;2023-06-26T10:12:55;100545.85;;;26.87;46.54
24336;BME280;33098;52.400;16.880;2023-06-26T10:15:27;100543.56;;;26.94;45.68
24336;BME280;33098;52.400;16.880;2023-06-26T10:17:55;100541.46;;;26.98;45.83
24336;BME280;33098;52.400;16.880;2023-06-26T10:20:23;100537.20;;;27.05;45.82
24336;BME280;33098;52.400;16.880;2023-06-26T10:22:54;100537.77;;;27.14;45.91
24336;BME280;33098;52.400;16.880;2023-06-26T10:25:23;100536.48;;;27.34;45.62
24336;BME280;33098;52.400;16.880;2023-06-26T10:27:54;100534.84;;;27.61;45.38
24336;BME280;33098;52.400;16.880;2023-06-26T10:30:27;100534.39;;;27.83;45.14
24336;BME280;33098;52.400;16.880;2023-06-26T10:32:54;100531.08;;;28.01;45.07
24336;BME280;33098;52.400;16.880;2023-06-26T10:35:24;100526.66;;;28.16;44.89
24336;BME280;33098;52.400;16.880;2023-06-26T10:37:51;100525.76;;;28.26;44.92
24336;BME280;33098;52.400;16.880;2023-06-26T10:40:23;100524.23;;;28.29;44.91
24336;BME280;33098;52.400;16.880;2023-06-26T10:42:51;100524.09;;;28.32;44.58
24336;BME280;33098;52.400;16.880;2023-06-26T10:45:19;100518.88;;;28.43;44.98
24336;BME280;33098;52.400;16.880;2023-06-26T10:47:48;100520.55;;;28.49;44.39
24336;BME280;33098;52.400;16.880;2023-06-26T10:50:29;100515.80;;;28.36;43.90
24336;BME280;33098;52.400;16.880;2023-06-26T10:53:21;100512.66;;;28.38;44.42
24336;BME280;33098;52.400;16.880;2023-06-26T10:56:03;100512.91;;;28.51;44.08
24336;BME280;33098;52.400;16.880;2023-06-26T10:58:56;100514.62;;;28.68;44.24
24336;BME280;33098;52.400;16.880;2023-06-26T11:01:40;100510.58;;;28.90;44.25
24336;BME280;33098;52.400;16.880;2023-06-26T11:04:08;100506.14;;;29.07;43.89
24336;BME280;33098;52.400;16.880;2023-06-26T11:06:38;100506.75;;;29.31;43.47
24336;BME280;33098;52.400;16.880;2023-06-26T11:09:13;100506.73;;;29.52;42.56
24336;BME280;33098;52.400;16.880;2023-06-26T11:11:55;100503.55;;;29.58;41.47
24336;BME280;33098;52.400;16.880;2023-06-26T11:14:26;100502.30;;;29.71;42.03
24336;BME280;33098;52.400;16.880;2023-06-26T11:16:55;100497.33;;;29.81;42.41
24336;BME280;33098;52.400;16.880;2023-06-26T11:19:25;100496.24;;;29.97;42.47
24336;BME280;33098;52.400;16.880;2023-06-26T11:21:57;100487.18;;;30.03;41.84
24336;BME280;33098;52.400;16.880;2023-06-26T11:24:25;100491.23;;;29.95;41.94
24336;BME280;33098;52.400;16.880;2023-06-26T11:26:52;100485.95;;;29.87;41.83
24336;BME280;33098;52.400;16.880;2023-06-26T11:29:18;100484.89;;;29.76;41.87
24336;BME280;33098;52.400;16.880;2023-06-26T11:31:45;100483.52;;;29.61;42.17
24336;BME280;33098;52.400;16.880;2023-06-26T11:34:13;100473.70;;;29.54;42.50
24336;BME280;33098;52.400;16.880;2023-06-26T11:36:41;100469.50;;;29.47;42.38
24336;BME280;33098;52.400;16.880;2023-06-26T11:39:09;100467.60;;;29.36;42.61
24336;BME280;33098;52.400;16.880;2023-06-26T11:41:37;100467.84;;;29.34;42.75
24336;BME280;33098;52.400;16.880;2023-06-26T11:44:06;100465.88;;;29.56;42.66
24336;BME280;33098;52.400;16.880;2023-06-26T11:46:37;100466.86;;;29.75;42.38
24336;BME280;33098;52.400;16.880;2023-06-26T11:49:04;100467.63;;;29.81;41.57
24336;BME280;33098;52.400;16.880;2023-06-26T11:51:31;100461.45;;;29.98;42.00
24336;BME280;33098;52.400;16.880;2023-06-26T11:54:01;100460.48;;;30.05;41.68
24336;BME280;33098;52.400;16.880;2023-06-26T11:56:30;100458.81;;;29.98;41.36
24336;BME280;33098;52.400;16.880;2023-06-26T11:59:02;100455.31;;;29.91;41.63
24336;BME280;33098;52.400;16.880;2023-06-26T12:01:40;100453.53;;;29.87;41.46
24336;BME280;33098;52.400;16.880;2023-06-26T12:04:08;100452.16;;;29.77;41.32
24336;BME280;33098;52.400;16.880;2023-06-26T12:06:38;100449.91;;;29.81;41.66
24336;BME280;33098;52.400;16.880;2023-06-26T12:09:09;100447.89;;;30.04;41.63
24336;BME280;33098;52.400;16.880;2023-06-26T12:11:38;100438.77;;;30.19;41.70
24336;BME280;33098;52.400;16.880;2023-06-26T12:14:06;100437.61;;;30.49;40.87
24336;BME280;33098;52.400;16.880;2023-06-26T12:16:34;100434.48;;;30.83;40.79
24336;BME280;33098;52.400;16.880;2023-06-26T12:19:03;100432.42;;;31.11;40.50
24336;BME280;33098;52.400;16.880;2023-06-26T12:24:18;100429.66;;;30.70;39.65
24336;BME280;33098;52.400;16.880;2023-06-26T12:26:48;100428.57;;;30.71;40.19
24336;BME280;33098;52.400;16.880;2023-06-26T12:29:17;100428.02;;;30.71;40.07
24336;BME280;33098;52.400;16.880;2023-06-26T12:31:45;100426.77;;;30.63;39.85
24336;BME280;33098;52.400;16.880;2023-06-26T12:34:14;100431.80;;;30.49;40.10
24336;BME280;33098;52.400;16.880;2023-06-26T12:36:46;100425.34;;;30.36;40.50
24336;BME280;33098;52.400;16.880;2023-06-26T12:39:19;100429.55;;;30.19;40.67
24336;BME280;33098;52.400;16.880;2023-06-26T12:41:48;100424.99;;;30.04;40.96
24336;BME280;33098;52.400;16.880;2023-06-26T12:44:25;100424.96;;;29.91;41.28
24336;BME280;33098;52.400;16.880;2023-06-26T12:46:59;100427.69;;;29.78;41.01
24336;BME280;33098;52.400;16.880;2023-06-26T12:49:30;100427.23;;;29.56;41.70
24336;BME280;33098;52.400;16.880;2023-06-26T12:51:59;100429.81;;;29.30;42.05